sensor_id;sensor_type;location;lat;lon;timestamp;temperature;humidity
55083;DHT22;40978;52.850;6.506;2023-07-31T00:00:15;15.40;99.90
55083;DHT22;40978;52.850;6.506;2023-07-31T00:02:41;15.40;99.90
55083;DHT22;40978;52.850;6.506;2023-07-31T00:05:08;15.30;99.90
55083;DHT22;40978;52.850;6.506;2023-07-31T00:07:34;15.30;99.90
55083;DHT22;40978;52.850;6.506;2023-07-31T00:10:00;15.30;99.90
55083;DHT22;40978;52.850;6.506;2023-07-31T00:12:26;15.30;99.90
55083;DHT22;40978;52.850;6.506;2023-07-31T00:14:51;15.20;99.90
55083;DHT22;40978;52.850;6.506;2023-07-31T00:17:17;15.30;99.90
55083;DHT22;40978;52.850;6.506;2023-07-31T00:19:43;15.20;99.90
55083;DHT22;40978;52.850;6.506;2023-07-31T00:22:11;15.30;99.90
55083;DHT22;40978;52.850;6.506;2023-07-31T00:24:37;15.20;99.90
55083;DHT22;40978;52.850;6.506;2023-07-31T00:27:03;15.20;99.90
55083;DHT22;40978;52.850;6.506;2023-07-31T00:29:29;15.20;99.90
55083;DHT22;40978;52.850;6.506;2023-07-31T00:31:54;15.20;99.90
55083;DHT22;40978;52.850;6.506;2023-07-31T00:34:20;15.20;99.90
55083;DHT22;40978;52.850;6.506;2023-07-31T00:36:46;15.20;99.90
55083;DHT22;40978;52.850;6.506;2023-07-31T00:39:11;15.20;99.90
55083;DHT22;40978;52.850;6.506;2023-07-31T00:41:37;15.20;99.90
55083;DHT22;40978;52.850;6.506;2023-07-31T00:44:03;15.10;99.90
55083;DHT22;40978;52.850;6.506;2023-07-31T00:46:29;15.10;99.90
55083;DHT22;40978;52.850;6.506;2023-07-31T00:48:54;15.10;99.90
55083;DHT22;40978;52.850;6.506;2023-07-31T00:51:20;15.10;99.90
55083;DHT22;40978;52.850;6.506;2023-07-31T00:53:47;15.10;99.90
55083;DHT22;40978;52.850;6.506;2023-07-31T00:56:12;15.10;99.90
55083;DHT22;40978;52.850;6.506;2023-07-31T00:58:39;15.10;99.90
55083;DHT22;40978;52.850;6.506;2023-07-31T01:01:06;15.10;99.90
55083;DHT22;40978;52.850;6.506;2023-07-31T01:03:31;15.00;99.90
55083;DHT22;40978;52.850;6.506;2023-07-31T01:06:07;15.00;99.90
55083;DHT22;40978;52.850;6.506;2023-07-31T01:11:46;15.00;99.90
55083;DHT22;40978;52.850;6.506;2023-07-31T01:14:02;15.00;99.90
55083;DHT22;40978;52.850;6.506;2023-07-31T01:16:27;14.90;99.90
55083;DHT22;40978;52.850;6.506;2023-07-31T01:18:53;14.90;99.90
55083;DHT22;40978;52.850;6.506;2023-07-31T01:21:52;14.90;99.90
55083;DHT22;40978;52.850;6.506;2023-07-31T01:24:28;14.90;99.90
55083;DHT22;40978;52.850;6.506;2023-07-31T01:26:58;14.90;99.90
55083;DHT22;40978;52.850;6.506;2023-07-31T01:32:02;14.90;99.90
55083;DHT22;40978;52.850;6.506;2023-07-31T01:34:29;14.90;99.90
55083;DHT22;40978;52.850;6.506;2023-07-31T01:36:56;14.90;99.90
55083;DHT22;40978;52.850;6.506;2023-07-31T01:39:23;14.90;99.90
55083;DHT22;40978;52.850;6.506;2023-07-31T01:41:49;15.00;99.90
55083;DHT22;40978;52.850;6.506;2023-07-31T01:44:15;14.90;99.90
55083;DHT22;40978;52.850;6.506;2023-07-31T01:46:41;14.90;99.90
55083;DHT22;40978;52.850;6.506;2023-07-31T01:49:06;15.00;99.90
55083;DHT22;40978;52.850;6.506;2023-07-31T01:51:32;15.00;99.90
55083;DHT22;40978;52.850;6.506;2023-07-31T01:54:01;14.90;99.90
55083;DHT22;40978;52.850;6.506;2023-07-31T01:56:27;15.00;99.90
55083;DHT22;40978;52.850;6.506;2023-07-31T01:58:53;14.90;99.90
55083;DHT22;40978;52.850;6.506;2023-07-31T02:01:19;14.90;99.90
55083;DHT22;40978;52.850;6.506;2023-07-31T02:03:45;15.00;99.90
55083;DHT22;40978;52.850;6.506;2023-07-31T02:06:10;14.90;99.90
55083;DHT22;40978;52.850;6.506;2023-07-31T02:08:36;15.00;99.90
55083;DHT22;40978;52.850;6.506;2023-07-31T02:11:03;15.00;99.90
55083;DHT22;40978;52.850;6.506;2023-07-31T02:13:29;15.00;99.90
55083;DHT22;40978;52.850;6.506;2023-07-31T02:15:55;15.00;99.90
55083;DHT22;40978;52.850;6.506;2023-07-31T02:18:20;15.00;99.90
55083;DHT22;40978;52.850;6.506;2023-07-31T02:20:51;15.00;99.90
55083;DHT22;40978;52.850;6.506;2023-07-31T02:23:17;15.00;99.90
55083;DHT22;40978;52.850;6.506;2023-07-31T02:25:44;15.00;99.90
55083;DHT22;40978;52.850;6.506;2023-07-31T02:28:10;15.00;99.90
55083;DHT22;40978;52.850;6.506;2023-07-31T02:30:36;15.10;99.90
55083;DHT22;40978;52.850;6.506;2023-07-31T02:33:02;15.10;99.90
55083;DHT22;40978;52.850;6.506;2023-07-31T02:35:28;15.10;99.90
55083;DHT22;40978;52.850;6.506;2023-07-31T02:37:54;15.10;99.90
55083;DHT22;40978;52.850;6.506;2023-07-31T02:40:19;15.10;99.90
55083;DHT22;40978;52.850;6.506;2023-07-31T02:42:45;15.10;99.90
55083;DHT22;40978;52.850;6.506;2023-07-31T02:45:11;15.20;99.90
55083;DHT22;40978;52.850;6.506;2023-07-31T02:47:37;15.20;99.90
55083;DHT22;40978;52.850;6.506;2023-07-31T02:50:05;15.20;99.90
55083;DHT22;40978;52.850;6.506;2023-07-31T02:52:31;15.20;99.90
55083;DHT22;40978;52.850;6.506;2023-07-31T02:54:58;15.20;99.90
55083;DHT22;40978;52.850;6.506;2023-07-31T02:57:23;15.20;99.90
55083;DHT22;40978;52.850;6.506;2023-07-31T02:59:49;15.20;99.90
55083;DHT22;40978;52.850;6.506;2023-07-31T03:02:15;15.20;99.90
55083;DHT22;40978;52.850;6.506;2023-07-31T03:04:40;15.20;99.90
55083;DHT22;40978;52.850;6.506;2023-07-31T03:07:06;15.20;99.90
55083;DHT22;40978;52.850;6.506;2023-07-31T03:09:32;15.20;99.90
55083;DHT22;40978;52.850;6.506;2023-07-31T03:11:57;15.20;99.90
55083;DHT22;40978;52.850;6.506;2023-07-31T03:14:23;15.20;99.90
55083;DHT22;40978;52.850;6.506;2023-07-31T03:16:51;15.20;99.90
55083;DHT22;40978;52.850;6.506;2023-07-31T03:19:17;15.30;99.90
55083;DHT22;40978;52.850;6.506;2023-07-31T03:21:43;15.30;99.90
55083;DHT22;40978;52.850;6.506;2023-07-31T03:24:09;15.30;99.90
55083;DHT22;40978;52.850;6.506;2023-07-31T03:26:34;15.30;99.90
55083;DHT22;40978;52.850;6.506;2023-07-31T03:29:01;15.30;99.90
55083;DHT22;40978;52.850;6.506;2023-07-31T03:31:27;15.30;99.90
55083;DHT22;40978;52.850;6.506;2023-07-31T03:33:53;15.40;99.90
55083;DHT22;40978;52.850;6.506;2023-07-31T03:36:18;15.40;99.90
55083;DHT22;40978;52.850;6.506;2023-07-31T03:38:45;15.40;99.90
55083;DHT22;40978;52.850;6.506;2023-07-31T03:41:11;15.40;99.90
55083;DHT22;40978;52.850;6.506;2023-07-31T03:43:37;15.40;99.90
55083;DHT22;40978;52.850;6.506;2023-07-31T03:46:02;15.50;99.90
55083;DHT22;40978;52.850;6.506;2023-07-31T03:48:29;15.50;99.90
55083;DHT22;40978;52.850;6.506;2023-07-31T03:50:54;15.50;99.90
55083;DHT22;40978;52.850;6.506;2023-07-31T03:53:20;15.50;99.90
55083;DHT22;40978;52.850;6.506;2023-07-31T03:55:46;15.60;99.90
55083;DHT22;40978;52.850;6.506;2023-07-31T03:58:12;15.60;99.90
55083;DHT22;40978;52.850;6.506;2023-07-31T04:00:39;15.60;99.90
55083;DHT22;40978;52.850;6.506;2023-07-31T04:03:05;15.60;99.90
55083;DHT22;40978;52.850;6.506;2023-07-31T04:05:32;15.60;99.90
55083;DHT22;40978;52.850;6.506;2023-07-31T04:07:57;15.60;99.90
55083;DHT22;40978;52.850;6.506;2023-07-31T04:10:23;15.60;99.90
55083;DHT22;40978;52.850;6.506;2023-07-31T04:12:49;15.60;99.90
55083;DHT22;40978;52.850;6.506;2023-07-31T04:15:15;15.60;99.90
55083;DHT22;40978;52.850;6.506;2023-07-31T04:17:41;15.60;99.90
55083;DHT22;40978;52.850;6.506;2023-07-31T04:20:07;15.60;99.90
55083;DHT22;40978;52.850;6.506;2023-07-31T04:22:33;15.70;99.90
55083;DHT22;40978;52.850;6.506;2023-07-31T04:24:59;15.70;99.90
55083;DHT22;40978;52.850;6.506;2023-07-31T04:27:25;15.70;99.90
55083;DHT22;40978;52.850;6.506;2023-07-31T04:29:51;15.70;99.90
55083;DHT22;40978;52.850;6.506;2023-07-31T04:32:16;15.80;99.90
55083;DHT22;40978;52.850;6.506;2023-07-31T04:34:43;15.80;99.90
55083;DHT22;40978;52.850;6.506;2023-07-31T04:37:08;15.80;99.90
55083;DHT22;40978;52.850;6.506;2023-07-31T04:39:34;15.90;99.90
55083;DHT22;40978;52.850;6.506;2023-07-31T04:42:00;15.90;99.90
55083;DHT22;40978;52.850;6.506;2023-07-31T04:44:26;15.90;99.90
55083;DHT22;40978;52.850;6.506;2023-07-31T04:46:51;15.90;99.90
55083;DHT22;40978;52.850;6.506;2023-07-31T04:49:17;15.90;99.90
55083;DHT22;40978;52.850;6.506;2023-07-31T04:51:43;16.00;99.90
55083;DHT22;40978;52.850;6.506;2023-07-31T04:54:08;16.00;99.90
55083;DHT22;40978;52.850;6.506;2023-07-31T04:56:34;16.00;99.90
55083;DHT22;40978;52.850;6.506;2023-07-31T04:59:00;16.00;99.90
55083;DHT22;40978;52.850;6.506;2023-07-31T05:01:25;16.00;99.90
55083;DHT22;40978;52.850;6.506;2023-07-31T05:03:51;16.00;99.90
55083;DHT22;40978;52.850;6.506;2023-07-31T05:06:17;16.00;99.90
55083;DHT22;40978;52.850;6.506;2023-07-31T05:08:42;16.00;99.90
55083;DHT22;40978;52.850;6.506;2023-07-31T05:11:08;16.00;99.90
55083;DHT22;40978;52.850;6.506;2023-07-31T05:13:34;16.00;99.90
55083;DHT22;40978;52.850;6.506;2023-07-31T05:15:59;16.00;99.90
55083;DHT22;40978;52.850;6.506;2023-07-31T05:18:25;16.00;99.90
55083;DHT22;40978;52.850;6.506;2023-07-31T05:20:51;16.10;99.90
55083;DHT22;40978;52.850;6.506;2023-07-31T05:23:16;16.00;99.90
55083;DHT22;40978;52.850;6.506;2023-07-31T05:25:42;16.10;99.90
55083;DHT22;40978;52.850;6.506;2023-07-31T05:28:08;16.10;99.90
55083;DHT22;40978;52.850;6.506;2023-07-31T05:30:33;16.10;99.90
55083;DHT22;40978;52.850;6.506;2023-07-31T05:32:59;16.10;99.90
55083;DHT22;40978;52.850;6.506;2023-07-31T05:35:25;16.10;99.90
55083;DHT22;40978;52.850;6.506;2023-07-31T05:37:51;16.10;99.90
55083;DHT22;40978;52.850;6.506;2023-07-31T05:40:16;16.10;99.90
55083;DHT22;40978;52.850;6.506;2023-07-31T05:42:42;16.10;99.90
55083;DHT22;40978;52.850;6.506;2023-07-31T05:45:08;16.10;99.90
55083;DHT22;40978;52.850;6.506;2023-07-31T05:47:34;16.00;99.90
55083;DHT22;40978;52.850;6.506;2023-07-31T05:49:59;16.10;99.90
55083;DHT22;40978;52.850;6.506;2023-07-31T05:52:25;16.10;99.90
55083;DHT22;40978;52.850;6.506;2023-07-31T05:54:51;16.10;99.90
55083;DHT22;40978;52.850;6.506;2023-07-31T05:57:17;16.10;99.90
55083;DHT22;40978;52.850;6.506;2023-07-31T05:59:42;16.10;99.90
55083;DHT22;40978;52.850;6.506;2023-07-31T06:02:08;16.20;99.90
55083;DHT22;40978;52.850;6.506;2023-07-31T06:04:34;16.20;99.90
55083;DHT22;40978;52.850;6.506;2023-07-31T06:07:00;16.20;99.90
55083;DHT22;40978;52.850;6.506;2023-07-31T06:09:25;16.20;99.90
55083;DHT22;40978;52.850;6.506;2023-07-31T06:11:51;16.20;99.90
55083;DHT22;40978;52.850;6.506;2023-07-31T06:14:17;16.30;99.90
55083;DHT22;40978;52.850;6.506;2023-07-31T06:16:44;16.20;99.90
55083;DHT22;40978;52.850;6.506;2023-07-31T06:19:10;16.30;99.90
55083;DHT22;40978;52.850;6.506;2023-07-31T06:21:36;16.20;99.90
55083;DHT22;40978;52.850;6.506;2023-07-31T06:24:07;16.20;99.90
55083;DHT22;40978;52.850;6.506;2023-07-31T06:26:33;16.20;99.90
55083;DHT22;40978;52.850;6.506;2023-07-31T06:28:59;16.20;99.90
55083;DHT22;40978;52.850;6.506;2023-07-31T06:31:25;16.20;99.90
55083;DHT22;40978;52.850;6.506;2023-07-31T06:33:51;16.30;99.90
55083;DHT22;40978;52.850;6.506;2023-07-31T06:36:17;16.30;99.90
55083;DHT22;40978;52.850;6.506;2023-07-31T06:38:43;16.20;99.90
55083;DHT22;40978;52.850;6.506;2023-07-31T06:41:09;16.30;99.90
55083;DHT22;40978;52.850;6.506;2023-07-31T06:43:36;16.30;99.90
55083;DHT22;40978;52.850;6.506;2023-07-31T06:46:08;16.30;99.90
55083;DHT22;40978;52.850;6.506;2023-07-31T06:48:35;16.30;99.90
55083;DHT22;40978;52.850;6.506;2023-07-31T06:51:03;16.30;99.90
55083;DHT22;40978;52.850;6.506;2023-07-31T06:53:28;16.30;99.90
55083;DHT22;40978;52.850;6.506;2023-07-31T06:55:54;16.30;99.90
55083;DHT22;40978;52.850;6.506;2023-07-31T06:58:20;16.30;99.90
55083;DHT22;40978;52.850;6.506;2023-07-31T07:00:46;16.30;99.90
55083;DHT22;40978;52.850;6.506;2023-07-31T07:03:12;16.30;99.90
55083;DHT22;40978;52.850;6.506;2023-07-31T07:05:40;16.30;99.90
55083;DHT22;40978;52.850;6.506;2023-07-31T07:08:06;16.40;99.90
55083;DHT22;40978;52.850;6.506;2023-07-31T07:10:31;16.40;99.90
55083;DHT22;40978;52.850;6.506;2023-07-31T07:12:57;16.40;99.90
55083;DHT22;40978;52.850;6.506;2023-07-31T07:15:23;16.50;99.90
55083;DHT22;40978;52.850;6.506;2023-07-31T07:17:49;16.40;99.90
55083;DHT22;40978;52.850;6.506;2023-07-31T07:20:14;16.40;99.90
55083;DHT22;40978;52.850;6.506;2023-07-31T07:22:40;16.40;99.90
55083;DHT22;40978;52.850;6.506;2023-07-31T07:25:08;16.50;99.90
55083;DHT22;40978;52.850;6.506;2023-07-31T07:27:34;16.50;99.90
55083;DHT22;40978;52.850;6.506;2023-07-31T07:30:00;16.60;99.90
55083;DHT22;40978;52.850;6.506;2023-07-31T07:32:26;16.50;99.90
55083;DHT22;40978;52.850;6.506;2023-07-31T07:34:52;16.60;99.90
55083;DHT22;40978;52.850;6.506;2023-07-31T07:37:18;16.60;99.90
55083;DHT22;40978;52.850;6.506;2023-07-31T07:39:44;16.70;99.90
55083;DHT22;40978;52.850;6.506;2023-07-31T07:42:09;16.70;99.90
55083;DHT22;40978;52.850;6.506;2023-07-31T07:44:35;16.70;99.90
55083;DHT22;40978;52.850;6.506;2023-07-31T07:47:01;16.70;99.90
55083;DHT22;40978;52.850;6.506;2023-07-31T07:49:27;16.80;99.90
55083;DHT22;40978;52.850;6.506;2023-07-31T07:51:52;16.90;99.90
55083;DHT22;40978;52.850;6.506;2023-07-31T07:54:18;17.00;99.90
55083;DHT22;40978;52.850;6.506;2023-07-31T07:56:45;17.00;99.90
55083;DHT22;40978;52.850;6.506;2023-07-31T07:59:11;17.10;99.90
55083;DHT22;40978;52.850;6.506;2023-07-31T08:01:36;17.10;99.90
55083;DHT22;40978;52.850;6.506;2023-07-31T08:04:02;17.10;99.90
55083;DHT22;40978;52.850;6.506;2023-07-31T08:06:28;17.10;99.90
55083;DHT22;40978;52.850;6.506;2023-07-31T08:08:55;17.10;99.90
55083;DHT22;40978;52.850;6.506;2023-07-31T08:11:21;17.10;99.90
55083;DHT22;40978;52.850;6.506;2023-07-31T08:13:49;17.10;99.90
55083;DHT22;40978;52.850;6.506;2023-07-31T08:16:15;17.10;99.90
55083;DHT22;40978;52.850;6.506;2023-07-31T08:18:40;17.10;99.90
55083;DHT22;40978;52.850;6.506;2023-07-31T08:21:08;17.20;99.90
55083;DHT22;40978;52.850;6.506;2023-07-31T08:23:34;17.30;99.90
55083;DHT22;40978;52.850;6.506;2023-07-31T08:25:59;17.30;99.90
55083;DHT22;40978;52.850;6.506;2023-07-31T08:28:25;17.30;99.90
55083;DHT22;40978;52.850;6.506;2023-07-31T08:30:51;17.30;99.90
55083;DHT22;40978;52.850;6.506;2023-07-31T08:33:17;17.30;99.90
55083;DHT22;40978;52.850;6.506;2023-07-31T08:35:42;17.30;99.90
55083;DHT22;40978;52.850;6.506;2023-07-31T08:38:08;17.30;99.90
55083;DHT22;40978;52.850;6.506;2023-07-31T08:40:36;17.30;99.90
55083;DHT22;40978;52.850;6.506;2023-07-31T08:43:06;17.40;99.90
55083;DHT22;40978;52.850;6.506;2023-07-31T08:45:32;17.40;99.90
55083;DHT22;40978;52.850;6.506;2023-07-31T08:47:59;17.40;99.90
55083;DHT22;40978;52.850;6.506;2023-07-31T08:50:25;17.40;99.90
55083;DHT22;40978;52.850;6.506;2023-07-31T08:52:52;17.40;99.90
55083;DHT22;40978;52.850;6.506;2023-07-31T08:55:18;17.40;99.90
55083;DHT22;40978;52.850;6.506;2023-07-31T08:57:51;17.50;99.90
55083;DHT22;40978;52.850;6.506;2023-07-31T09:00:19;17.50;99.90
55083;DHT22;40978;52.850;6.506;2023-07-31T09:02:55;17.50;99.90
55083;DHT22;40978;52.850;6.506;2023-07-31T09:05:21;17.50;99.90
55083;DHT22;40978;52.850;6.506;2023-07-31T09:07:50;17.50;99.90
55083;DHT22;40978;52.850;6.506;2023-07-31T09:10:16;17.50;99.90
55083;DHT22;40978;52.850;6.506;2023-07-31T09:12:42;17.60;99.90
55083;DHT22;40978;52.850;6.506;2023-07-31T09:15:09;17.60;99.90
55083;DHT22;40978;52.850;6.506;2023-07-31T09:17:36;17.60;99.90
55083;DHT22;40978;52.850;6.506;2023-07-31T09:20:19;17.70;99.90
55083;DHT22;40978;52.850;6.506;2023-07-31T09:22:45;17.70;99.90
55083;DHT22;40978;52.850;6.506;2023-07-31T09:27:58;17.70;99.90
55083;DHT22;40978;52.850;6.506;2023-07-31T09:30:24;17.70;99.90
55083;DHT22;40978;52.850;6.506;2023-07-31T09:32:51;17.70;99.90
55083;DHT22;40978;52.850;6.506;2023-07-31T09:35:21;17.70;99.90
55083;DHT22;40978;52.850;6.506;2023-07-31T09:38:03;17.70;99.90
55083;DHT22;40978;52.850;6.506;2023-07-31T09:40:36;17.90;99.90
55083;DHT22;40978;52.850;6.506;2023-07-31T09:43:07;18.00;99.90
55083;DHT22;40978;52.850;6.506;2023-07-31T09:45:40;18.20;99.90
55083;DHT22;40978;52.850;6.506;2023-07-31T09:48:09;18.20;99.90
55083;DHT22;40978;52.850;6.506;2023-07-31T09:50:37;18.20;99.90
55083;DHT22;40978;52.850;6.506;2023-07-31T09:53:04;18.20;99.90
55083;DHT22;40978;52.850;6.506;2023-07-31T09:55:30;18.20;99.90
55083;DHT22;40978;52.850;6.506;2023-07-31T09:57:57;18.30;99.90
55083;DHT22;40978;52.850;6.506;2023-07-31T10:00:23;18.30;99.90
55083;DHT22;40978;52.850;6.506;2023-07-31T10:02:53;18.40;99.90
55083;DHT22;40978;52.850;6.506;2023-07-31T10:05:19;18.30;99.90
55083;DHT22;40978;52.850;6.506;2023-07-31T10:07:54;18.40;99.90
55083;DHT22;40978;52.850;6.506;2023-07-31T10:10:21;18.40;99.90
55083;DHT22;40978;52.850;6.506;2023-07-31T10:12:52;18.40;99.90
55083;DHT22;40978;52.850;6.506;2023-07-31T10:15:19;18.40;99.90
55083;DHT22;40978;52.850;6.506;2023-07-31T10:17:47;18.40;99.90
55083;DHT22;40978;52.850;6.506;2023-07-31T10:20:14;18.40;99.90
55083;DHT22;40978;52.850;6.506;2023-07-31T10:22:45;18.50;99.90
55083;DHT22;40978;52.850;6.506;2023-07-31T10:25:12;18.50;99.90
55083;DHT22;40978;52.850;6.506;2023-07-31T10:27:41;18.50;99.90
55083;DHT22;40978;52.850;6.506;2023-07-31T10:30:15;18.60;99.90
55083;DHT22;40978;52.850;6.506;2023-07-31T10:32:43;18.60;99.90
55083;DHT22;40978;52.850;6.506;2023-07-31T10:35:09;18.70;99.90
55083;DHT22;40978;52.850;6.506;2023-07-31T10:37:40;18.80;99.90
55083;DHT22;40978;52.850;6.506;2023-07-31T10:40:26;18.90;99.90
55083;DHT22;40978;52.850;6.506;2023-07-31T10:42:54;19.10;99.90
55083;DHT22;40978;52.850;6.506;2023-07-31T10:45:58;19.20;99.90
55083;DHT22;40978;52.850;6.506;2023-07-31T10:48:24;19.30;99.90
55083;DHT22;40978;52.850;6.506;2023-07-31T10:50:52;19.30;99.90
55083;DHT22;40978;52.850;6.506;2023-07-31T10:53:29;19.20;99.90
55083;DHT22;40978;52.850;6.506;2023-07-31T10:56:02;19.20;99.90
55083;DHT22;40978;52.850;6.506;2023-07-31T10:58:29;19.10;99.90
55083;DHT22;40978;52.850;6.506;2023-07-31T11:00:58;19.20;99.90
55083;DHT22;40978;52.850;6.506;2023-07-31T11:03:47;19.10;99.90
55083;DHT22;40978;52.850;6.506;2023-07-31T11:06:15;19.00;99.90
55083;DHT22;40978;52.850;6.506;2023-07-31T11:08:46;18.90;99.90
55083;DHT22;40978;52.850;6.506;2023-07-31T11:11:19;18.90;99.90
55083;DHT22;40978;52.850;6.506;2023-07-31T11:13:50;19.00;99.90
55083;DHT22;40978;52.850;6.506;2023-07-31T11:16:22;19.00;99.90
55083;DHT22;40978;52.850;6.506;2023-07-31T11:18:48;19.00;99.90
55083;DHT22;40978;52.850;6.506;2023-07-31T11:21:16;19.10;99.90
55083;DHT22;40978;52.850;6.506;2023-07-31T11:23:49;19.10;99.90
55083;DHT22;40978;52.850;6.506;2023-07-31T11:26:17;19.20;99.90
55083;DHT22;40978;52.850;6.506;2023-07-31T11:28:46;19.30;99.90
55083;DHT22;40978;52.850;6.506;2023-07-31T11:31:11;19.30;99.90
55083;DHT22;40978;52.850;6.506;2023-07-31T11:33:37;19.30;99.90
55083;DHT22;40978;52.850;6.506;2023-07-31T11:36:03;19.30;99.90
55083;DHT22;40978;52.850;6.506;2023-07-31T11:38:31;19.40;99.90
55083;DHT22;40978;52.850;6.506;2023-07-31T11:40:59;19.40;99.90
55083;DHT22;40978;52.850;6.506;2023-07-31T11:43:25;19.50;99.90
55083;DHT22;40978;52.850;6.506;2023-07-31T11:45:56;19.60;99.90
55083;DHT22;40978;52.850;6.506;2023-07-31T11:48:26;19.70;99.90
55083;DHT22;40978;52.850;6.506;2023-07-31T11:50:54;19.80;99.90
55083;DHT22;40978;52.850;6.506;2023-07-31T11:53:48;20.00;99.90
55083;DHT22;40978;52.850;6.506;2023-07-31T11:56:17;20.20;99.90
55083;DHT22;40978;52.850;6.506;2023-07-31T11:58:46;20.60;99.90
55083;DHT22;40978;52.850;6.506;2023-07-31T12:01:13;20.80;99.90
55083;DHT22;40978;52.850;6.506;2023-07-31T12:03:39;20.80;99.90
55083;DHT22;40978;52.850;6.506;2023-07-31T12:06:07;20.60;99.90
55083;DHT22;40978;52.850;6.506;2023-07-31T12:08:33;20.50;99.90
55083;DHT22;40978;52.850;6.506;2023-07-31T12:11:04;20.30;99.90
55083;DHT22;40978;52.850;6.506;2023-07-31T12:13:31;20.30;99.90
55083;DHT22;40978;52.850;6.506;2023-07-31T12:16:01;20.40;99.90
55083;DHT22;40978;52.850;6.506;2023-07-31T12:18:30;20.50;99.90
55083;DHT22;40978;52.850;6.506;2023-07-31T12:21:00;20.40;99.90
55083;DHT22;40978;52.850;6.506;2023-07-31T12:23:28;20.20;99.90
55083;DHT22;40978;52.850;6.506;2023-07-31T12:26:03;19.90;99.90
55083;DHT22;40978;52.850;6.506;2023-07-31T12:28:30;19.70;99.90
55083;DHT22;40978;52.850;6.506;2023-07-31T12:31:00;19.50;99.90
55083;DHT22;40978;52.850;6.506;2023-07-31T12:33:31;19.40;99.90
55083;DHT22;40978;52.850;6.506;2023-07-31T12:35:59;19.40;99.90
55083;DHT22;40978;52.850;6.506;2023-07-31T12:38:25;19.40;99.90
55083;DHT22;40978;52.850;6.506;2023-07-31T12:40:51;19.40;99.90
55083;DHT22;40978;52.850;6.506;2023-07-31T12:43:17;19.30;99.90
55083;DHT22;40978;52.850;6.506;2023-07-31T12:45:42;19.30;99.90
55083;DHT22;40978;52.850;6.506;2023-07-31T12:48:08;19.30;99.90
55083;DHT22;40978;52.850;6.506;2023-07-31T12:50:34;19.40;99.90
55083;DHT22;40978;52.850;6.506;2023-07-31T12:53:02;19.40;99.90
55083;DHT22;40978;52.850;6.506;2023-07-31T12:55:29;19.50;99.90
55083;DHT22;40978;52.850;6.506;2023-07-31T12:57:55;19.70;99.90
55083;DHT22;40978;52.850;6.506;2023-07-31T13:00:22;19.70;99.90
55083;DHT22;40978;52.850;6.506;2023-07-31T13:02:47;19.90;99.90
55083;DHT22;40978;52.850;6.506;2023-07-31T13:05:14;19.90;99.90
55083;DHT22;40978;52.850;6.506;2023-07-31T13:07:40;19.90;99.90
55083;DHT22;40978;52.850;6.506;2023-07-31T13:10:06;19.90;99.90
55083;DHT22;40978;52.850;6.506;2023-07-31T13:12:32;19.80;99.90
55083;DHT22;40978;52.850;6.506;2023-07-31T13:14:58;19.80;99.90
55083;DHT22;40978;52.850;6.506;2023-07-31T13:17:24;19.80;99.90
55083;DHT22;40978;52.850;6.506;2023-07-31T13:19:49;19.80;99.90
55083;DHT22;40978;52.850;6.506;2023-07-31T13:22:15;19.80;99.90
55083;DHT22;40978;52.850;6.506;2023-07-31T13:24:41;19.80;99.90
55083;DHT22;40978;52.850;6.506;2023-07-31T13:27:07;19.80;99.90
55083;DHT22;40978;52.850;6.506;2023-07-31T13:29:32;19.80;99.90
55083;DHT22;40978;52.850;6.506;2023-07-31T13:31:58;19.70;99.90
55083;DHT22;40978;52.850;6.506;2023-07-31T13:34:24;19.70;99.90
55083;DHT22;40978;52.850;6.506;2023-07-31T13:36:50;19.60;99.90
55083;DHT22;40978;52.850;6.506;2023-07-31T13:39:16;19.60;99.90
55083;DHT22;40978;52.850;6.506;2023-07-31T13:41:41;19.60;99.90
55083;DHT22;40978;52.850;6.506;2023-07-31T13:44:07;19.70;99.90
55083;DHT22;40978;52.850;6.506;2023-07-31T13:46:33;19.90;99.90
55083;DHT22;40978;52.850;6.506;2023-07-31T13:48:59;20.10;99.90
55083;DHT22;40978;52.850;6.506;2023-07-31T13:51:25;20.20;99.90
55083;DHT22;40978;52.850;6.506;2023-07-31T13:53:52;20.40;99.90
55083;DHT22;40978;52.850;6.506;2023-07-31T13:56:18;20.40;99.90
55083;DHT22;40978;52.850;6.506;2023-07-31T13:58:44;20.50;99.90
55083;DHT22;40978;52.850;6.506;2023-07-31T14:01:10;20.60;99.90
55083;DHT22;40978;52.850;6.506;2023-07-31T14:03:35;20.60;99.90
55083;DHT22;40978;52.850;6.506;2023-07-31T14:06:01;20.70;99.90
55083;DHT22;40978;52.850;6.506;2023-07-31T14:08:27;20.60;99.90
55083;DHT22;40978;52.850;6.506;2023-07-31T14:10:53;20.50;99.90
55083;DHT22;40978;52.850;6.506;2023-07-31T14:13:19;20.40;99.90
55083;DHT22;40978;52.850;6.506;2023-07-31T14:15:44;20.30;99.90
55083;DHT22;40978;52.850;6.506;2023-07-31T14:18:10;20.30;99.90
55083;DHT22;40978;52.850;6.506;2023-07-31T14:20:36;20.30;99.90
55083;DHT22;40978;52.850;6.506;2023-07-31T14:23:03;20.20;99.90
55083;DHT22;40978;52.850;6.506;2023-07-31T14:25:29;20.10;99.90
55083;DHT22;40978;52.850;6.506;2023-07-31T14:27:55;20.20;99.90
55083;DHT22;40978;52.850;6.506;2023-07-31T14:30:21;20.20;99.90
55083;DHT22;40978;52.850;6.506;2023-07-31T14:32:47;20.30;99.90
55083;DHT22;40978;52.850;6.506;2023-07-31T14:35:12;20.30;99.90
55083;DHT22;40978;52.850;6.506;2023-07-31T14:37:43;20.40;99.90
55083;DHT22;40978;52.850;6.506;2023-07-31T14:40:10;20.40;99.90
55083;DHT22;40978;52.850;6.506;2023-07-31T14:42:36;20.50;99.90
55083;DHT22;40978;52.850;6.506;2023-07-31T14:45:06;20.40;99.90
55083;DHT22;40978;52.850;6.506;2023-07-31T14:47:32;20.40;99.90
55083;DHT22;40978;52.850;6.506;2023-07-31T14:49:58;20.30;99.90
55083;DHT22;40978;52.850;6.506;2023-07-31T14:52:24;20.20;99.90
55083;DHT22;40978;52.850;6.506;2023-07-31T14:54:50;20.00;99.90
55083;DHT22;40978;52.850;6.506;2023-07-31T14:57:15;20.00;99.90
55083;DHT22;40978;52.850;6.506;2023-07-31T14:59:41;19.90;99.90
55083;DHT22;40978;52.850;6.506;2023-07-31T15:02:10;19.90;99.90
55083;DHT22;40978;52.850;6.506;2023-07-31T15:04:36;19.80;99.90
55083;DHT22;40978;52.850;6.506;2023-07-31T15:07:02;19.70;99.90
55083;DHT22;40978;52.850;6.506;2023-07-31T15:09:28;19.70;99.90
55083;DHT22;40978;52.850;6.506;2023-07-31T15:11:55;19.70;99.90
55083;DHT22;40978;52.850;6.506;2023-07-31T15:14:21;19.60;99.90
55083;DHT22;40978;52.850;6.506;2023-07-31T15:16:46;19.60;99.90
55083;DHT22;40978;52.850;6.506;2023-07-31T15:19:12;19.50;99.90
55083;DHT22;40978;52.850;6.506;2023-07-31T15:21:38;19.50;99.90
55083;DHT22;40978;52.850;6.506;2023-07-31T15:24:04;19.50;99.90
55083;DHT22;40978;52.850;6.506;2023-07-31T15:26:30;19.40;99.90
55083;DHT22;40978;52.850;6.506;2023-07-31T15:29:03;19.40;99.90
55083;DHT22;40978;52.850;6.506;2023-07-31T15:31:31;19.40;99.90
55083;DHT22;40978;52.850;6.506;2023-07-31T15:33:57;19.40;99.90
55083;DHT22;40978;52.850;6.506;2023-07-31T15:36:23;19.40;99.90